sensor_id;sensor_type;location;lat;lon;timestamp;pressure;altitude;pressure_sealevel;temperature;humidity
47154;BME280;32907;41.412;2.164;2023-02-03T00:00:00;101828.94;;;18.22;34.26
47154;BME280;32907;41.412;2.164;2023-02-03T00:02:37;101869.97;;;18.42;33.19
47154;BME280;32907;41.412;2.164;2023-02-03T00:05:08;101866.69;;;18.40;33.01
47154;BME280;32907;41.412;2.164;2023-02-03T00:07:38;101821.38;;;18.07;32.94
47154;BME280;32907;41.412;2.164;2023-02-03T00:10:07;101852.63;;;18.26;32.48
47154;BME280;32907;41.412;2.164;2023-02-03T00:12:35;101867.69;;;18.34;32.60
47154;BME280;32907;41.412;2.164;2023-02-03T00:15:03;101863.88;;;18.35;32.92
47154;BME280;32907;41.412;2.164;2023-02-03T00:17:31;101786.97;;;17.79;32.65
47154;BME280;32907;41.412;2.164;2023-02-03T00:19:59;101865.53;;;18.36;32.57
47154;BME280;32907;41.412;2.164;2023-02-03T00:22:26;101856.66;;;18.24;32.73
47154;BME280;32907;41.412;2.164;2023-02-03T00:24:54;101811.91;;;18.09;32.68
47154;BME280;32907;41.412;2.164;2023-02-03T00:27:22;101826.28;;;18.10;31.54
47154;BME280;32907;41.412;2.164;2023-02-03T00:29:50;101823.09;;;18.13;32.04
47154;BME280;32907;41.412;2.164;2023-02-03T00:32:17;101820.63;;;18.11;32.00
47154;BME280;32907;41.412;2.164;2023-02-03T00:34:46;101850.56;;;18.16;32.12
47154;BME280;32907;41.412;2.164;2023-02-03T00:37:14;101703.47;;;17.36;32.31
47154;BME280;32907;41.412;2.164;2023-02-03T00:39:42;101848.59;;;18.29;32.32
47154;BME280;32907;41.412;2.164;2023-02-03T00:42:09;101831.97;;;18.25;32.30
47154;BME280;32907;41.412;2.164;2023-02-03T00:44:37;101733.50;;;17.62;31.54
47154;BME280;32907;41.412;2.164;2023-02-03T00:47:05;101840.94;;;18.26;32.04
47154;BME280;32907;41.412;2.164;2023-02-03T00:49:33;101846.88;;;18.23;31.42
47154;BME280;32907;41.412;2.164;2023-02-03T00:52:01;101801.78;;;17.88;31.95
47154;BME280;32907;41.412;2.164;2023-02-03T00:54:29;101819.94;;;18.04;31.74
47154;BME280;32907;41.412;2.164;2023-02-03T00:56:59;101869.81;;;18.32;32.05
47154;BME280;32907;41.412;2.164;2023-02-03T00:59:27;101799.72;;;17.95;31.17
47154;BME280;32907;41.412;2.164;2023-02-03T01:01:55;101843.09;;;18.24;31.32
47154;BME280;32907;41.412;2.164;2023-02-03T01:04:24;101844.16;;;18.23;31.25
47154;BME280;32907;41.412;2.164;2023-02-03T01:06:54;101842.84;;;18.25;31.56
47154;BME280;32907;41.412;2.164;2023-02-03T01:09:24;101820.88;;;17.93;30.88
47154;BME280;32907;41.412;2.164;2023-02-03T01:11:53;101840.94;;;18.09;31.04
47154;BME280;32907;41.412;2.164;2023-02-03T01:14:21;101811.66;;;17.94;31.35
47154;BME280;32907;41.412;2.164;2023-02-03T01:16:49;101829.34;;;18.13;31.31
47154;BME280;32907;41.412;2.164;2023-02-03T01:19:17;101839.56;;;18.23;31.07
47154;BME280;32907;41.412;2.164;2023-02-03T01:21:45;101788.81;;;17.90;31.25
47154;BME280;32907;41.412;2.164;2023-02-03T01:24:14;101856.50;;;18.30;30.84
47154;BME280;32907;41.412;2.164;2023-02-03T01:26:42;101851.06;;;18.30;31.26
47154;BME280;32907;41.412;2.164;2023-02-03T01:29:10;101792.00;;;17.87;31.27
47154;BME280;32907;41.412;2.164;2023-02-03T01:31:39;101839.88;;;18.27;30.92
47154;BME280;32907;41.412;2.164;2023-02-03T01:34:12;101789.22;;;17.99;30.55
47154;BME280;32907;41.412;2.164;2023-02-03T01:36:43;101817.75;;;18.18;31.31
47154;BME280;32907;41.412;2.164;2023-02-03T01:39:13;101795.06;;;18.07;30.83
47154;BME280;32907;41.412;2.164;2023-02-03T01:41:44;101784.25;;;17.96;31.01
47154;BME280;32907;41.412;2.164;2023-02-03T01:44:42;101839.31;;;18.25;30.54
47154;BME280;32907;41.412;2.164;2023-02-03T01:50:02;101838.22;;;18.26;30.18
47154;BME280;32907;41.412;2.164;2023-02-03T01:52:32;101845.28;;;18.27;30.40
47154;BME280;32907;41.412;2.164;2023-02-03T01:55:04;101841.75;;;18.26;30.42
47154;BME280;32907;41.412;2.164;2023-02-03T01:57:55;101806.63;;;18.03;30.25
47154;BME280;32907;41.412;2.164;2023-02-03T02:00:25;101792.09;;;17.92;30.89
47154;BME280;32907;41.412;2.164;2023-02-03T02:02:57;101820.44;;;18.18;30.62
47154;BME280;32907;41.412;2.164;2023-02-03T02:05:39;101826.03;;;18.28;30.63
47154;BME280;32907;41.412;2.164;2023-02-03T02:08:11;101832.31;;;18.29;30.65
47154;BME280;32907;41.412;2.164;2023-02-03T02:10:41;101780.72;;;17.95;30.44
47154;BME280;32907;41.412;2.164;2023-02-03T02:13:10;101764.78;;;17.82;30.15
47154;BME280;32907;41.412;2.164;2023-02-03T02:16:09;101818.97;;;18.10;30.22
47154;BME280;32907;41.412;2.164;2023-02-03T02:29:27;101825.22;;;18.11;30.59
47154;BME280;32907;41.412;2.164;2023-02-03T02:34:45;101831.97;;;18.08;30.08
47154;BME280;32907;41.412;2.164;2023-02-03T02:37:34;101834.69;;;18.08;30.80
47154;BME280;32907;41.412;2.164;2023-02-03T02:43:00;101825.16;;;18.06;30.16
47154;BME280;32907;41.412;2.164;2023-02-03T02:45:43;101783.53;;;17.83;30.60
47154;BME280;32907;41.412;2.164;2023-02-03T02:48:24;101822.19;;;18.07;30.27
47154;BME280;32907;41.412;2.164;2023-02-03T02:50:55;101830.34;;;18.07;30.39
47154;BME280;32907;41.412;2.164;2023-02-03T02:53:28;101827.53;;;18.02;29.94
47154;BME280;32907;41.412;2.164;2023-02-03T02:56:00;101789.38;;;17.75;30.26
47154;BME280;32907;41.412;2.164;2023-02-03T02:58:31;101755.78;;;17.65;30.77
47154;BME280;32907;41.412;2.164;2023-02-03T03:01:02;101773.91;;;17.76;30.33
47154;BME280;32907;41.412;2.164;2023-02-03T03:03:31;101825.38;;;18.04;29.82
47154;BME280;32907;41.412;2.164;2023-02-03T03:06:02;101817.84;;;18.06;30.22
47154;BME280;32907;41.412;2.164;2023-02-03T03:08:53;101809.94;;;18.05;30.08
47154;BME280;32907;41.412;2.164;2023-02-03T03:11:25;101731.19;;;17.54;30.27
47154;BME280;32907;41.412;2.164;2023-02-03T03:13:57;101797.59;;;17.97;30.38
47154;BME280;32907;41.412;2.164;2023-02-03T03:16:29;101807.44;;;18.03;30.08
47154;BME280;32907;41.412;2.164;2023-02-03T03:19:09;101794.53;;;17.94;30.17
47154;BME280;32907;41.412;2.164;2023-02-03T03:21:44;101801.56;;;18.06;29.69
47154;BME280;32907;41.412;2.164;2023-02-03T03:24:19;101779.50;;;17.86;29.99
47154;BME280;32907;41.412;2.164;2023-02-03T03:26:52;101789.69;;;17.96;29.71
47154;BME280;32907;41.412;2.164;2023-02-03T03:29:31;101798.84;;;18.06;29.73
47154;BME280;32907;41.412;2.164;2023-02-03T03:32:02;101740.66;;;17.69;29.84
47154;BME280;32907;41.412;2.164;2023-02-03T03:34:31;101708.66;;;17.54;30.35
47154;BME280;32907;41.412;2.164;2023-02-03T03:37:10;101769.81;;;17.90;29.69
47154;BME280;32907;41.412;2.164;2023-02-03T03:39:57;101739.72;;;17.75;29.80
47154;BME280;32907;41.412;2.164;2023-02-03T03:50:21;101760.91;;;17.78;29.56
47154;BME280;32907;41.412;2.164;2023-02-03T03:52:50;101742.28;;;17.70;29.42
47154;BME280;32907;41.412;2.164;2023-02-03T03:55:20;101752.69;;;17.73;29.72
47154;BME280;32907;41.412;2.164;2023-02-03T03:57:55;101792.34;;;18.07;29.44
47154;BME280;32907;41.412;2.164;2023-02-03T04:00:28;101724.78;;;17.60;29.62
47154;BME280;32907;41.412;2.164;2023-02-03T04:03:01;101667.31;;;17.30;29.62
47154;BME280;32907;41.412;2.164;2023-02-03T04:05:33;101801.56;;;18.06;29.62
47154;BME280;32907;41.412;2.164;2023-02-03T04:08:01;101663.69;;;17.24;29.37
47154;BME280;32907;41.412;2.164;2023-02-03T04:10:39;101798.25;;;18.04;29.36
47154;BME280;32907;41.412;2.164;2023-02-03T04:13:07;101791.09;;;17.98;29.29
47154;BME280;32907;41.412;2.164;2023-02-03T04:15:35;101727.09;;;17.52;29.65
47154;BME280;32907;41.412;2.164;2023-02-03T04:18:04;101797.34;;;17.99;29.84
47154;BME280;32907;41.412;2.164;2023-02-03T04:20:32;101807.97;;;18.00;29.63
47154;BME280;32907;41.412;2.164;2023-02-03T04:23:00;101785.56;;;17.76;29.48
47154;BME280;32907;41.412;2.164;2023-02-03T04:25:28;101802.69;;;17.94;29.29
47154;BME280;32907;41.412;2.164;2023-02-03T04:27:56;101786.81;;;17.85;29.50
47154;BME280;32907;41.412;2.164;2023-02-03T04:30:23;101812.72;;;17.93;29.64
47154;BME280;32907;41.412;2.164;2023-02-03T04:32:52;101795.94;;;17.79;29.93
47154;BME280;32907;41.412;2.164;2023-02-03T04:35:20;101774.84;;;17.70;29.61
47154;BME280;32907;41.412;2.164;2023-02-03T04:37:49;101706.75;;;17.21;29.96
47154;BME280;32907;41.412;2.164;2023-02-03T04:40:17;101743.09;;;17.53;29.55
47154;BME280;32907;41.412;2.164;2023-02-03T04:42:45;101763.19;;;17.69;29.59
47154;BME280;32907;41.412;2.164;2023-02-03T04:45:13;101789.13;;;17.77;29.52
47154;BME280;32907;41.412;2.164;2023-02-03T04:47:41;101778.88;;;17.67;29.45
47154;BME280;32907;41.412;2.164;2023-02-03T04:50:09;101775.81;;;17.63;29.50
47154;BME280;32907;41.412;2.164;2023-02-03T04:52:37;101744.69;;;17.49;29.38
47154;BME280;32907;41.412;2.164;2023-02-03T04:55:05;101806.31;;;17.82;28.92
47154;BME280;32907;41.412;2.164;2023-02-03T04:57:33;101775.34;;;17.67;29.30
47154;BME280;32907;41.412;2.164;2023-02-03T05:00:01;101744.25;;;17.41;29.45
47154;BME280;32907;41.412;2.164;2023-02-03T05:02:28;101818.56;;;17.85;29.40
47154;BME280;32907;41.412;2.164;2023-02-03T05:04:56;101778.63;;;17.69;29.55
47154;BME280;32907;41.412;2.164;2023-02-03T05:07:24;101792.50;;;17.84;28.95
47154;BME280;32907;41.412;2.164;2023-02-03T05:09:51;101752.06;;;17.54;29.20
47154;BME280;32907;41.412;2.164;2023-02-03T05:12:19;101733.63;;;17.39;29.44
47154;BME280;32907;41.412;2.164;2023-02-03T05:14:47;101797.91;;;17.84;29.47
47154;BME280;32907;41.412;2.164;2023-02-03T05:17:14;101799.56;;;17.85;29.45
47154;BME280;32907;41.412;2.164;2023-02-03T05:19:42;101797.91;;;17.84;29.38
47154;BME280;32907;41.412;2.164;2023-02-03T05:22:10;101801.13;;;17.81;29.78
47154;BME280;32907;41.412;2.164;2023-02-03T05:24:38;101771.72;;;17.61;29.88
47154;BME280;32907;41.412;2.164;2023-02-03T05:27:06;101803.19;;;17.74;30.76
47154;BME280;32907;41.412;2.164;2023-02-03T05:29:34;101806.72;;;17.74;31.17
47154;BME280;32907;41.412;2.164;2023-02-03T05:32:02;101773.03;;;17.58;31.07
47154;BME280;32907;41.412;2.164;2023-02-03T05:34:30;101791.97;;;17.70;31.85
47154;BME280;32907;41.412;2.164;2023-02-03T05:36:58;101817.16;;;17.82;31.93
47154;BME280;32907;41.412;2.164;2023-02-03T05:39:27;101824.22;;;17.83;32.17
47154;BME280;32907;41.412;2.164;2023-02-03T05:41:55;101825.97;;;17.89;32.41
47154;BME280;32907;41.412;2.164;2023-02-03T05:44:26;101822.03;;;17.97;32.09
47154;BME280;32907;41.412;2.164;2023-02-03T05:46:57;101800.38;;;17.85;32.16
47154;BME280;32907;41.412;2.164;2023-02-03T05:49:25;101729.03;;;17.40;32.13
47154;BME280;32907;41.412;2.164;2023-02-03T05:51:54;101832.69;;;18.04;31.90
47154;BME280;32907;41.412;2.164;2023-02-03T05:54:22;101831.41;;;18.06;32.26
47154;BME280;32907;41.412;2.164;2023-02-03T05:56:50;101804.84;;;17.92;32.48
47154;BME280;32907;41.412;2.164;2023-02-03T05:59:18;101821.63;;;18.05;33.19
47154;BME280;32907;41.412;2.164;2023-02-03T06:01:46;101785.44;;;17.83;32.93
47154;BME280;32907;41.412;2.164;2023-02-03T06:04:15;101830.34;;;18.07;32.78
47154;BME280;32907;41.412;2.164;2023-02-03T06:06:42;101850.06;;;18.20;32.45
47154;BME280;32907;41.412;2.164;2023-02-03T06:09:10;101815.84;;;18.02;32.30
47154;BME280;32907;41.412;2.164;2023-02-03T06:11:38;101807.88;;;17.95;32.32
47154;BME280;32907;41.412;2.164;2023-02-03T06:14:05;101858.00;;;18.21;32.66
47154;BME280;32907;41.412;2.164;2023-02-03T06:16:33;101840.13;;;18.08;34.14
47154;BME280;32907;41.412;2.164;2023-02-03T06:19:01;101758.00;;;17.68;34.39
47154;BME280;32907;41.412;2.164;2023-02-03T06:21:29;101780.97;;;17.77;34.55
47154;BME280;32907;41.412;2.164;2023-02-03T06:23:57;101862.19;;;18.29;34.91
47154;BME280;32907;41.412;2.164;2023-02-03T06:26:25;101856.16;;;18.27;35.09
47154;BME280;32907;41.412;2.164;2023-02-03T06:28:53;101849.25;;;18.19;34.94
47154;BME280;32907;41.412;2.164;2023-02-03T06:31:21;101835.59;;;18.14;35.01
47154;BME280;32907;41.412;2.164;2023-02-03T06:33:49;101867.13;;;18.32;34.07
47154;BME280;32907;41.412;2.164;2023-02-03T06:36:17;101783.59;;;17.72;33.71
47154;BME280;32907;41.412;2.164;2023-02-03T06:38:45;101832.97;;;18.02;34.32
47154;BME280;32907;41.412;2.164;2023-02-03T06:41:13;101865.63;;;18.24;34.60
47154;BME280;32907;41.412;2.164;2023-02-03T06:43:40;101802.19;;;17.80;34.03
47154;BME280;32907;41.412;2.164;2023-02-03T06:46:08;101816.16;;;17.88;33.29
47154;BME280;32907;41.412;2.164;2023-02-03T06:48:36;101885.19;;;18.26;33.79
47154;BME280;32907;41.412;2.164;2023-02-03T06:51:04;101830.31;;;17.91;34.08
47154;BME280;32907;41.412;2.164;2023-02-03T06:53:32;101880.59;;;18.27;34.43
47154;BME280;32907;41.412;2.164;2023-02-03T06:56:00;101861.13;;;18.13;34.47
47154;BME280;32907;41.412;2.164;2023-02-03T06:58:29;101888.44;;;18.23;33.96
47154;BME280;32907;41.412;2.164;2023-02-03T07:00:57;101861.84;;;18.08;34.04
47154;BME280;32907;41.412;2.164;2023-02-03T07:03:25;101834.19;;;17.95;33.92
47154;BME280;32907;41.412;2.164;2023-02-03T07:05:53;101892.88;;;18.29;33.65
47154;BME280;32907;41.412;2.164;2023-02-03T07:08:21;101876.75;;;18.23;34.14
47154;BME280;32907;41.412;2.164;2023-02-03T07:10:54;101884.38;;;18.26;34.55
47154;BME280;32907;41.412;2.164;2023-02-03T07:13:22;101889.81;;;18.26;34.25
47154;BME280;32907;41.412;2.164;2023-02-03T07:15:50;101897.38;;;18.24;34.21
47154;BME280;32907;41.412;2.164;2023-02-03T07:18:18;101903.06;;;18.22;33.80
47154;BME280;32907;41.412;2.164;2023-02-03T07:21:12;101887.41;;;18.12;33.61
47154;BME280;32907;41.412;2.164;2023-02-03T07:23:40;101906.19;;;18.14;33.83
47154;BME280;32907;41.412;2.164;2023-02-03T07:26:09;101910.28;;;18.16;33.44
47154;BME280;32907;41.412;2.164;2023-02-03T07:28:37;101867.72;;;17.88;33.42
47154;BME280;32907;41.412;2.164;2023-02-03T07:31:04;101864.53;;;17.92;33.56
47154;BME280;32907;41.412;2.164;2023-02-03T07:33:35;101911.84;;;18.12;33.38
47154;BME280;32907;41.412;2.164;2023-02-03T07:36:03;101903.53;;;18.02;33.41
47154;BME280;32907;41.412;2.164;2023-02-03T07:38:31;101862.88;;;17.74;33.34
47154;BME280;32907;41.412;2.164;2023-02-03T07:40:59;101928.97;;;18.13;33.08
47154;BME280;32907;41.412;2.164;2023-02-03T07:43:27;101927.31;;;18.12;33.10
47154;BME280;32907;41.412;2.164;2023-02-03T07:45:55;101895.34;;;17.85;32.90
47154;BME280;32907;41.412;2.164;2023-02-03T07:48:23;101892.78;;;17.79;32.92
47154;BME280;32907;41.412;2.164;2023-02-03T07:50:51;101890.06;;;17.79;32.62
47154;BME280;32907;41.412;2.164;2023-02-03T07:53:19;101881.25;;;17.72;32.79
47154;BME280;32907;41.412;2.164;2023-02-03T07:55:47;101938.66;;;18.09;32.47
47154;BME280;32907;41.412;2.164;2023-02-03T07:58:15;101923.84;;;18.00;32.07
47154;BME280;32907;41.412;2.164;2023-02-03T08:00:43;101961.97;;;18.22;32.30
47154;BME280;32907;41.412;2.164;2023-02-03T08:03:11;101959.25;;;18.22;32.30
47154;BME280;32907;41.412;2.164;2023-02-03T08:05:39;101928.69;;;17.98;32.77
47154;BME280;32907;41.412;2.164;2023-02-03T08:08:07;101965.16;;;18.18;32.79
47154;BME280;32907;41.412;2.164;2023-02-03T08:10:35;101891.13;;;17.78;32.97
47154;BME280;32907;41.412;2.164;2023-02-03T08:13:02;101934.44;;;18.01;33.07
47154;BME280;32907;41.412;2.164;2023-02-03T08:15:30;101924.16;;;18.03;32.95
47154;BME280;32907;41.412;2.164;2023-02-03T08:17:59;101894.28;;;17.86;33.17
47154;BME280;32907;41.412;2.164;2023-02-03T08:20:26;101967.00;;;18.30;33.58
47154;BME280;32907;41.412;2.164;2023-02-03T08:22:55;101926.88;;;18.03;33.22
47154;BME280;32907;41.412;2.164;2023-02-03T08:25:22;101940.06;;;18.11;33.55
47154;BME280;32907;41.412;2.164;2023-02-03T08:27:52;101953.66;;;18.28;34.45
47154;BME280;32907;41.412;2.164;2023-02-03T08:30:21;101918.16;;;18.01;33.84
47154;BME280;32907;41.412;2.164;2023-02-03T08:32:49;101979.53;;;18.31;33.45
47154;BME280;32907;41.412;2.164;2023-02-03T08:35:17;101968.16;;;18.34;33.41
47154;BME280;32907;41.412;2.164;2023-02-03T08:37:45;101982.31;;;18.36;33.18
47154;BME280;32907;41.412;2.164;2023-02-03T08:40:14;101980.75;;;18.40;34.15
47154;BME280;32907;41.412;2.164;2023-02-03T08:42:42;101977.69;;;18.36;33.96
47154;BME280;32907;41.412;2.164;2023-02-03T08:45:10;101975.50;;;18.50;33.17
47154;BME280;32907;41.412;2.164;2023-02-03T08:47:38;101914.81;;;18.11;33.85
47154;BME280;32907;41.412;2.164;2023-02-03T08:50:07;101970.72;;;18.40;33.37
47154;BME280;32907;41.412;2.164;2023-02-03T08:52:35;101887.88;;;17.93;33.04
47154;BME280;32907;41.412;2.164;2023-02-03T08:55:04;101991.03;;;18.66;35.95
47154;BME280;32907;41.412;2.164;2023-02-03T08:57:35;101997.53;;;18.82;36.69
47154;BME280;32907;41.412;2.164;2023-02-03T09:00:04;101920.59;;;18.48;40.58
47154;BME280;32907;41.412;2.164;2023-02-03T09:02:33;101900.19;;;18.45;36.57
47154;BME280;32907;41.412;2.164;2023-02-03T09:05:01;101979.41;;;18.88;33.10
47154;BME280;32907;41.412;2.164;2023-02-03T09:07:29;101932.78;;;18.62;32.55
47154;BME280;32907;41.412;2.164;2023-02-03T09:09:57;101955.28;;;18.75;32.21
47154;BME280;32907;41.412;2.164;2023-02-03T09:12:24;102011.19;;;19.04;32.41
47154;BME280;32907;41.412;2.164;2023-02-03T09:14:52;102013.91;;;19.04;31.67
47154;BME280;32907;41.412;2.164;2023-02-03T09:17:20;101984.28;;;18.86;31.50
47154;BME280;32907;41.412;2.164;2023-02-03T09:19:48;101998.03;;;18.96;31.61
47154;BME280;32907;41.412;2.164;2023-02-03T09:22:16;102014.72;;;19.05;31.13
47154;BME280;32907;41.412;2.164;2023-02-03T09:24:44;101979.66;;;18.86;30.97
47154;BME280;32907;41.412;2.164;2023-02-03T09:27:12;101937.16;;;18.63;31.54
47154;BME280;32907;41.412;2.164;2023-02-03T09:29:39;101991.34;;;19.04;31.98
47154;BME280;32907;41.412;2.164;2023-02-03T09:32:07;101919.06;;;18.69;31.01
47154;BME280;32907;41.412;2.164;2023-02-03T09:34:38;101934.63;;;18.73;31.39
47154;BME280;32907;41.412;2.164;2023-02-03T09:37:07;102000.00;;;19.17;30.94
47154;BME280;32907;41.412;2.164;2023-02-03T09:39:35;102016.44;;;19.27;30.30
47154;BME280;32907;41.412;2.164;2023-02-03T09:47:20;101934.84;;;18.89;30.39
47154;BME280;32907;41.412;2.164;2023-02-03T09:49:56;101958.22;;;19.07;31.50
47154;BME280;32907;41.412;2.164;2023-02-03T09:52:30;102013.78;;;19.33;31.59
47154;BME280;32907;41.412;2.164;2023-02-03T09:58:09;102003.75;;;19.33;39.83
47154;BME280;32907;41.412;2.164;2023-02-03T10:17:26;102022.78;;;19.55;33.76
47154;BME280;32907;41.412;2.164;2023-02-03T10:20:05;102022.22;;;19.53;33.60
47154;BME280;32907;41.412;2.164;2023-02-03T10:22:39;102016.66;;;19.43;33.39
47154;BME280;32907;41.412;2.164;2023-02-03T10:25:41;102025.22;;;19.51;34.21
47154;BME280;32907;41.412;2.164;2023-02-03T10:28:17;101964.97;;;19.04;33.96
47154;BME280;32907;41.412;2.164;2023-02-03T10:30:49;101974.53;;;19.07;34.40
47154;BME280;32907;41.412;2.164;2023-02-03T10:33:19;102002.41;;;19.36;34.45
47154;BME280;32907;41.412;2.164;2023-02-03T10:41:17;102017.66;;;19.37;36.70
47154;BME280;32907;41.412;2.164;2023-02-03T10:43:49;102001.69;;;19.23;35.89
47154;BME280;32907;41.412;2.164;2023-02-03T10:46:27;101952.31;;;18.93;36.63
47154;BME280;32907;41.412;2.164;2023-02-03T10:48:56;101992.31;;;19.14;35.43
47154;BME280;32907;41.412;2.164;2023-02-03T10:51:24;102011.56;;;19.29;34.41
47154;BME280;32907;41.412;2.164;2023-02-03T10:53:54;101943.75;;;18.84;36.23
47154;BME280;32907;41.412;2.164;2023-02-03T10:56:28;102008.75;;;19.24;34.86
47154;BME280;32907;41.412;2.164;2023-02-03T10:58:58;101992.06;;;19.16;35.22
47154;BME280;32907;41.412;2.164;2023-02-03T11:01:48;102006.63;;;19.26;36.38
47154;BME280;32907;41.412;2.164;2023-02-03T11:04:25;101985.53;;;19.17;35.34
47154;BME280;32907;41.412;2.164;2023-02-03T11:07:06;101983.25;;;19.25;34.91
47154;BME280;32907;41.412;2.164;2023-02-03T11:09:40;101927.44;;;18.84;36.25
47154;BME280;32907;41.412;2.164;2023-02-03T11:12:22;101985.72;;;19.27;34.41
47154;BME280;32907;41.412;2.164;2023-02-03T11:14:51;101987.59;;;19.26;35.42
47154;BME280;32907;41.412;2.164;2023-02-03T11:17:25;101936.63;;;19.00;35.09
47154;BME280;32907;41.412;2.164;2023-02-03T11:20:20;101926.44;;;18.90;34.36
47154;BME280;32907;41.412;2.164;2023-02-03T11:22:47;101981.34;;;19.26;33.95
47154;BME280;32907;41.412;2.164;2023-02-03T11:25:18;101949.31;;;19.11;34.26
47154;BME280;32907;41.412;2.164;2023-02-03T11:27:47;101963.44;;;19.30;35.56
47154;BME280;32907;41.412;2.164;2023-02-03T11:30:28;101893.56;;;18.92;34.75
47154;BME280;32907;41.412;2.164;2023-02-03T11:33:00;101905.69;;;19.01;34.40
47154;BME280;32907;41.412;2.164;2023-02-03T11:35:29;101928.13;;;19.13;35.35
47154;BME280;32907;41.412;2.164;2023-02-03T11:38:00;101946.75;;;19.43;34.69
47154;BME280;32907;41.412;2.164;2023-02-03T11:40:32;101944.03;;;19.43;34.38
47154;BME280;32907;41.412;2.164;2023-02-03T11:43:15;101921.44;;;19.43;35.09
47154;BME280;32907;41.412;2.164;2023-02-03T11:45:46;101894.31;;;19.26;33.49
47154;BME280;32907;41.412;2.164;2023-02-03T11:48:35;101906.66;;;19.34;35.10
47154;BME280;32907;41.412;2.164;2023-02-03T12:05:22;101927.56;;;19.55;33.75
47154;BME280;32907;41.412;2.164;2023-02-03T12:13:50;101894.09;;;19.54;33.70
47154;BME280;32907;41.412;2.164;2023-02-03T12:22:38;101835.84;;;19.50;35.90
47154;BME280;32907;41.412;2.164;2023-02-03T12:25:29;101876.16;;;19.80;35.27
47154;BME280;32907;41.412;2.164;2023-02-03T12:28:25;101833.97;;;19.56;37.09
47154;BME280;32907;41.412;2.164;2023-02-03T12:31:10;101866.72;;;19.88;35.42
47154;BME280;32907;41.412;2.164;2023-02-03T12:33:49;101814.28;;;19.66;35.49
47154;BME280;32907;41.412;2.164;2023-02-03T12:36:25;101796.34;;;19.48;33.49
47154;BME280;32907;41.412;2.164;2023-02-03T12:38:59;101854.50;;;19.91;34.58
47154;BME280;32907;41.412;2.164;2023-02-03T12:41:37;101862.47;;;19.97;35.55
47154;BME280;32907;41.412;2.164;2023-02-03T12:49:52;101821.16;;;19.73;35.66
47154;BME280;32907;41.412;2.164;2023-02-03T12:55:07;101838.47;;;19.94;34.33
47154;BME280;32907;41.412;2.164;2023-02-03T13:00:45;101708.94;;;19.34;31.64
47154;BME280;32907;41.412;2.164;2023-02-03T13:06:19;101816.56;;;20.11;30.60
47154;BME280;32907;41.412;2.164;2023-02-03T13:09:19;101773.94;;;19.90;30.86
47154;BME280;32907;41.412;2.164;2023-02-03T13:17:37;101787.94;;;20.08;31.66
47154;BME280;32907;41.412;2.164;2023-02-03T13:20:24;101754.81;;;19.84;32.29
47154;BME280;32907;41.412;2.164;2023-02-03T13:22:53;101802.44;;;20.19;32.18
47154;BME280;32907;41.412;2.164;2023-02-03T13:36:43;101802.97;;;20.16;34.34
47154;BME280;32907;41.412;2.164;2023-02-03T13:44:56;101788.97;;;20.02;35.64
47154;BME280;32907;41.412;2.164;2023-02-03T13:47:30;101762.44;;;19.82;35.32
47154;BME280;32907;41.412;2.164;2023-02-03T13:50:14;101811.59;;;20.03;35.25
47154;BME280;32907;41.412;2.164;2023-02-03T13:52:47;101805.59;;;20.01;35.25
47154;BME280;32907;41.412;2.164;2023-02-03T13:55:30;101797.84;;;19.88;35.51
47154;BME280;32907;41.412;2.164;2023-02-03T13:58:00;101801.38;;;19.88;35.38
47154;BME280;32907;41.412;2.164;2023-02-03T14:03:39;101814.22;;;19.93;35.88
47154;BME280;32907;41.412;2.164;2023-02-03T14:06:53;101770.41;;;19.62;35.74
47154;BME280;32907;41.412;2.164;2023-02-03T14:14:44;101786.31;;;19.75;36.49
47154;BME280;32907;41.412;2.164;2023-02-03T14:20:11;101744.63;;;19.43;36.00
47154;BME280;32907;41.412;2.164;2023-02-03T14:25:53;101802.91;;;19.74;36.55
47154;BME280;32907;41.412;2.164;2023-02-03T14:28:40;101821.22;;;19.83;36.57
47154;BME280;32907;41.412;2.164;2023-02-03T14:31:23;101768.59;;;19.46;35.81
47154;BME280;32907;41.412;2.164;2023-02-03T14:33:54;101814.16;;;19.82;35.64
47154;BME280;32907;41.412;2.164;2023-02-03T14:36:31;101806.22;;;19.81;35.74
47154;BME280;32907;41.412;2.164;2023-02-03T14:39:15;101808.91;;;19.76;34.75
47154;BME280;32907;41.412;2.164;2023-02-03T14:55:36;101813.22;;;19.72;35.28
47154;BME280;32907;41.412;2.164;2023-02-03T14:58:18;101802.31;;;19.72;34.89
47154;BME280;32907;41.412;2.164;2023-02-03T15:00:50;101792.19;;;19.62;35.47
47154;BME280;32907;41.412;2.164;2023-02-03T15:03:25;101713.88;;;19.15;35.68
47154;BME280;32907;41.412;2.164;2023-02-03T15:06:02;101809.22;;;19.79;35.20
47154;BME280;32907;41.412;2.164;2023-02-03T15:11:43;101786.72;;;19.62;35.32
47154;BME280;32907;41.412;2.164;2023-02-03T15:14:27;101754.91;;;19.36;35.66
47154;BME280;32907;41.412;2.164;2023-02-03T15:17:00;101817.84;;;19.71;35.40
47154;BME280;32907;41.412;2.164;2023-02-03T15:19:38;101774.28;;;19.44;35.68
47154;BME280;32907;41.412;2.164;2023-02-03T15:22:25;101820.28;;;19.73;35.37
47154;BME280;32907;41.412;2.164;2023-02-03T15:25:17;101754.28;;;19.28;34.99
47154;BME280;32907;41.412;2.164;2023-02-03T15:27:46;101773.97;;;19.41;35.38
47154;BME280;32907;41.412;2.164;2023-02-03T15:30:24;101821.66;;;19.70;35.06
47154;BME280;32907;41.412;2.164;2023-02-03T15:35:32;101829.81;;;19.70;34.47
47154;BME280;32907;41.412;2.164;2023-02-03T15:38:28;101768.34;;;19.20;34.40
47154;BME280;32907;41.412;2.164;2023-02-03T15:40:55;101827.72;;;19.55;34.63
47154;BME280;32907;41.412;2.164;2023-02-03T15:43:35;101793.78;;;19.36;34.54
47154;BME280;32907;41.412;2.164;2023-02-03T15:48:58;101838.69;;;19.61;34.68
47154;BME280;32907;41.412;2.164;2023-02-03T15:51:34;101809.31;;;19.36;34.81